createdAt,value
2017-10-26T00:00:42.066Z,97510.56
2017-10-26T00:03:07.804Z,97515.02
2017-10-26T00:05:33.671Z,97526.70
2017-10-26T00:07:59.415Z,97522.95
2017-10-26T00:10:25.156Z,97518.98
2017-10-26T00:12:50.947Z,97525.51
2017-10-26T00:15:16.707Z,97528.56
2017-10-26T00:17:42.467Z,97529.68
2017-10-26T00:20:08.228Z,97531.87
2017-10-26T00:22:33.983Z,97530.54
2017-10-26T00:24:59.743Z,97530.14
2017-10-26T00:27:25.499Z,97527.67
2017-10-26T00:29:51.259Z,97526.70
2017-10-26T00:32:17.027Z,97527.06
2017-10-26T00:34:42.786Z,97518.95
2017-10-26T00:37:08.543Z,97525.02
2017-10-26T00:39:34.310Z,97515.42
2017-10-26T00:42:00.176Z,97515.45
2017-10-26T00:44:26.802Z,97509.23
2017-10-26T00:46:52.576Z,97515.45
2017-10-26T00:49:18.321Z,97512.55
2017-10-26T00:51:44.081Z,97519.66
2017-10-26T00:54:09.880Z,97516.48
2017-10-26T00:56:35.684Z,97510.34
2017-10-26T00:59:01.431Z,97502.48
2017-10-26T01:01:27.208Z,97499.73
2017-10-26T01:03:52.989Z,97496.77
2017-10-26T01:06:18.763Z,97497.51
2017-10-26T01:08:44.519Z,97495.70
2017-10-26T01:11:10.263Z,97497.03
2017-10-26T01:13:36.042Z,97490.25
2017-10-26T01:16:01.782Z,97493.39
2017-10-26T01:18:27.578Z,97494.72
2017-10-26T01:20:53.343Z,97494.88
2017-10-26T01:23:19.094Z,97484.55
2017-10-26T01:25:44.898Z,97492.95
2017-10-26T01:28:10.688Z,97492.78
2017-10-26T01:30:36.438Z,97490.00
2017-10-26T01:33:02.201Z,97488.89
2017-10-26T01:35:27.972Z,97484.45
2017-10-26T01:37:53.750Z,97481.71
2017-10-26T01:40:19.523Z,97482.66
2017-10-26T01:42:45.354Z,97486.58
2017-10-26T01:45:11.139Z,97481.83
2017-10-26T01:47:36.923Z,97487.34
2017-10-26T01:50:02.677Z,97482.82
2017-10-26T01:52:28.556Z,97489.23
2017-10-26T01:54:54.320Z,97488.34
2017-10-26T01:57:20.106Z,97493.42
2017-10-26T01:59:45.868Z,97492.52
2017-10-26T02:02:11.644Z,97491.02
2017-10-26T02:04:37.470Z,97500.41
2017-10-26T02:07:03.299Z,97503.65
2017-10-26T02:09:29.085Z,97497.91
2017-10-26T02:11:54.867Z,97504.73
2017-10-26T02:14:20.643Z,97506.94
2017-10-26T02:16:46.408Z,97506.49
2017-10-26T02:19:12.167Z,97513.58
2017-10-26T02:21:37.951Z,97522.58
2017-10-26T02:24:03.725Z,97521.29
2017-10-26T02:26:29.503Z,97522.23
2017-10-26T02:29:07.815Z,97525.25
2017-10-26T02:31:33.636Z,97528.36
2017-10-26T02:33:59.379Z,97527.42
2017-10-26T02:36:25.183Z,97536.83
2017-10-26T02:38:50.960Z,97532.86
2017-10-26T02:41:16.721Z,97528.38
2017-10-26T02:43:42.496Z,97536.63
2017-10-26T02:46:08.292Z,97538.81
2017-10-26T02:48:34.071Z,97533.84
2017-10-26T02:50:59.839Z,97538.24
2017-10-26T02:53:25.591Z,97537.98
2017-10-26T02:55:51.346Z,97528.84
2017-10-26T02:58:17.112Z,97534.66
2017-10-26T03:00:42.908Z,97538.27
2017-10-26T03:03:08.740Z,97536.39
2017-10-26T03:05:34.535Z,97536.63
2017-10-26T03:08:00.332Z,97533.89
2017-10-26T03:10:26.087Z,97535.56
2017-10-26T03:12:51.908Z,97537.02
2017-10-26T03:15:17.663Z,97532.55
2017-10-26T03:17:43.417Z,97531.31
2017-10-26T03:20:09.236Z,97530.94
2017-10-26T03:22:37.067Z,97523.42
2017-10-26T03:25:02.941Z,97516.84
2017-10-26T03:27:28.711Z,97517.00
2017-10-26T03:29:54.480Z,97506.73
2017-10-26T03:32:20.232Z,97497.46
2017-10-26T03:34:46.005Z,97494.81
2017-10-26T03:37:11.783Z,97499.53
2017-10-26T03:39:37.523Z,97497.45
2017-10-26T03:42:03.312Z,97497.57
2017-10-26T03:44:29.064Z,97496.67
2017-10-26T03:46:54.882Z,97499.28
2017-10-26T03:49:20.651Z,97490.29
2017-10-26T03:51:46.398Z,97490.77
2017-10-26T03:54:12.152Z,97492.70
2017-10-26T03:56:38.010Z,97494.39
2017-10-26T03:59:03.786Z,97491.03
2017-10-26T04:01:29.538Z,97486.72
2017-10-26T04:03:55.295Z,97483.13
2017-10-26T04:06:21.096Z,97490.88
2017-10-26T04:08:46.838Z,97493.97
2017-10-26T04:11:12.639Z,97493.90
2017-10-26T04:13:38.419Z,97497.31
2017-10-26T04:16:04.211Z,97504.27
2017-10-26T04:18:30.005Z,97503.65
2017-10-26T04:20:55.779Z,97501.03
2017-10-26T04:23:21.586Z,97495.92
2017-10-26T04:25:47.401Z,97495.58
2017-10-26T04:28:13.251Z,97495.20
2017-10-26T04:30:39.018Z,97484.05
2017-10-26T04:33:04.940Z,97488.83
2017-10-26T04:35:30.765Z,97489.34
2017-10-26T04:37:56.534Z,97489.77
2017-10-26T04:40:22.314Z,97486.54
2017-10-26T04:42:48.083Z,97476.32
2017-10-26T04:45:13.872Z,97474.45
2017-10-26T04:47:39.706Z,97471.33
2017-10-26T04:50:05.463Z,97472.91
2017-10-26T04:52:31.224Z,97467.80
2017-10-26T04:54:57.896Z,97464.88
2017-10-26T04:57:23.666Z,97454.35
2017-10-26T04:59:49.443Z,97455.07
2017-10-26T05:02:15.216Z,97453.49
2017-10-26T05:04:41.026Z,97450.66
2017-10-26T05:07:06.789Z,97446.72
2017-10-26T05:09:32.557Z,97454.54
2017-10-26T05:11:58.302Z,97451.58
2017-10-26T05:14:24.082Z,97448.67
2017-10-26T05:16:49.848Z,97446.62
2017-10-26T05:19:15.619Z,97459.49
2017-10-26T05:21:41.368Z,97462.53
2017-10-26T05:24:07.143Z,97468.64
2017-10-26T05:26:32.905Z,97464.05
2017-10-26T05:28:58.679Z,97468.33
2017-10-26T05:31:24.435Z,97479.66
2017-10-26T05:33:50.217Z,97479.98
2017-10-26T05:36:15.998Z,97479.50
2017-10-26T05:38:41.755Z,97483.31
2017-10-26T05:41:07.713Z,97485.13
2017-10-26T05:43:33.504Z,97493.31
2017-10-26T05:45:59.275Z,97492.22
2017-10-26T05:48:25.060Z,97492.65
2017-10-26T05:50:50.864Z,97487.83
2017-10-26T05:53:16.632Z,97485.45
2017-10-26T05:55:42.409Z,97492.25
2017-10-26T05:58:08.193Z,97492.42
2017-10-26T06:00:33.959Z,97492.80
2017-10-26T06:02:59.727Z,97492.50
2017-10-26T06:05:25.480Z,97496.78
2017-10-26T06:07:51.255Z,97489.88
2017-10-26T06:10:17.054Z,97489.28
2017-10-26T06:12:42.794Z,97490.69
2017-10-26T06:15:08.571Z,97482.59
2017-10-26T06:17:34.318Z,97483.55
2017-10-26T06:20:00.063Z,97481.71
2017-10-26T06:22:25.831Z,97476.73
2017-10-26T06:24:51.583Z,97481.12
2017-10-26T06:27:17.427Z,97473.38
2017-10-26T06:29:43.184Z,97477.72
2017-10-26T06:32:08.954Z,97480.89
2017-10-26T06:34:34.742Z,97479.99
2017-10-26T06:37:00.536Z,97482.08
2017-10-26T06:39:26.290Z,97484.06
2017-10-26T06:41:52.044Z,97487.73
2017-10-26T06:44:17.808Z,97488.78
2017-10-26T06:46:43.565Z,97492.21
2017-10-26T06:49:09.364Z,97488.86
2017-10-26T06:51:35.118Z,97487.69
2017-10-26T06:54:00.874Z,97487.32
2017-10-26T06:56:26.655Z,97494.94
2017-10-26T06:58:52.438Z,97495.65
2017-10-26T07:01:18.200Z,97492.72
2017-10-26T07:03:43.957Z,97488.98
2017-10-26T07:06:09.769Z,97493.46
2017-10-26T07:08:35.555Z,97482.52
2017-10-26T07:11:01.299Z,97483.45
2017-10-26T07:13:27.064Z,97472.25
2017-10-26T07:15:52.832Z,97474.29
2017-10-26T07:18:18.600Z,97481.22
2017-10-26T07:20:44.339Z,97478.42
2017-10-26T07:23:10.106Z,97478.95
2017-10-26T07:25:35.858Z,97471.75
2017-10-26T07:28:01.635Z,97473.68
2017-10-26T07:30:27.373Z,97469.84
2017-10-26T07:32:53.152Z,97465.15
2017-10-26T07:35:18.927Z,97475.02
2017-10-26T07:37:44.670Z,97474.51
2017-10-26T07:40:10.469Z,97473.34
2017-10-26T07:42:36.231Z,97475.34
2017-10-26T07:45:02.023Z,97473.73
2017-10-26T07:47:27.823Z,97477.02
2017-10-26T07:49:53.590Z,97485.18
2017-10-26T07:52:19.351Z,97486.89
2017-10-26T07:54:45.118Z,97487.70
2017-10-26T07:57:10.899Z,97484.30
2017-10-26T07:59:36.643Z,97485.50
2017-10-26T08:02:02.428Z,97480.09
2017-10-26T08:04:28.216Z,97478.72
2017-10-26T08:06:53.964Z,97481.55
2017-10-26T08:09:19.735Z,97485.13
2017-10-26T08:11:45.507Z,97488.27
2017-10-26T08:14:11.304Z,97487.93
2017-10-26T08:16:37.056Z,97491.59
2017-10-26T08:19:02.817Z,97482.52
2017-10-26T08:21:28.621Z,97494.10
2017-10-26T08:23:54.366Z,97486.13
2017-10-26T08:26:20.161Z,97492.70
2017-10-26T08:28:45.962Z,97492.11
2017-10-26T08:31:11.709Z,97488.31
2017-10-26T08:33:37.495Z,97479.46
2017-10-26T08:36:03.310Z,97474.91
2017-10-26T08:38:29.089Z,97481.80
2017-10-26T08:40:54.863Z,97475.73
2017-10-26T08:43:20.608Z,97477.28
2017-10-26T08:45:46.425Z,97488.02
2017-10-26T08:48:12.167Z,97482.11
2017-10-26T08:50:37.956Z,97479.93
2017-10-26T08:53:03.778Z,97480.17
2017-10-26T08:55:29.539Z,97474.31
2017-10-26T08:57:55.283Z,97478.58
2017-10-26T09:00:21.123Z,97473.34
2017-10-26T09:02:46.933Z,97475.80
2017-10-26T09:05:12.733Z,97469.62
2017-10-26T09:07:38.507Z,97460.94
2017-10-26T09:10:04.272Z,97459.17
2017-10-26T09:12:30.055Z,97458.54
2017-10-26T09:14:55.848Z,97454.91
2017-10-26T09:17:21.623Z,97452.68
2017-10-26T09:19:47.411Z,97451.34
2017-10-26T09:22:13.172Z,97461.36
2017-10-26T09:24:38.938Z,97450.10
2017-10-26T09:27:04.728Z,97454.50
2017-10-26T09:29:30.543Z,97445.33
2017-10-26T09:31:56.306Z,97449.58
2017-10-26T09:34:22.094Z,97448.64
2017-10-26T09:36:47.876Z,97458.27
2017-10-26T09:39:13.619Z,97456.70
2017-10-26T09:41:39.404Z,97446.05
2017-10-26T09:44:05.187Z,97445.49
2017-10-26T09:46:30.948Z,97440.96
2017-10-26T09:48:56.750Z,97439.06
2017-10-26T09:51:22.512Z,97438.84
2017-10-26T09:53:48.436Z,97444.50
2017-10-26T09:56:14.207Z,97434.91
2017-10-26T09:58:40.007Z,97433.23
2017-10-26T10:01:05.808Z,97433.41
2017-10-26T10:03:31.599Z,97436.34
2017-10-26T10:05:57.380Z,97444.35
2017-10-26T10:08:23.152Z,97439.53
2017-10-26T10:10:48.957Z,97444.09
2017-10-26T10:13:14.727Z,97443.54
2017-10-26T10:15:40.522Z,97443.95
2017-10-26T10:18:06.298Z,97446.31
2017-10-26T10:20:32.107Z,97438.48
2017-10-26T10:22:57.896Z,97441.67
2017-10-26T10:25:23.714Z,97434.97
2017-10-26T10:27:49.504Z,97438.84
2017-10-26T10:30:15.279Z,97438.55
2017-10-26T10:32:41.089Z,97434.06
2017-10-26T10:35:06.859Z,97438.30
2017-10-26T10:37:32.638Z,97428.67
2017-10-26T10:39:58.406Z,97426.42
2017-10-26T10:42:24.206Z,97431.80
2017-10-26T10:44:50.023Z,97424.78
2017-10-26T10:47:15.827Z,97427.25
2017-10-26T10:49:41.619Z,97433.30
2017-10-26T10:52:07.416Z,97422.95
2017-10-26T10:54:33.212Z,97423.20
2017-10-26T10:56:59.019Z,97421.85
2017-10-26T10:59:31.028Z,97421.58
2017-10-26T11:01:56.827Z,97417.70
2017-10-26T11:04:22.585Z,97420.00
2017-10-26T11:06:48.344Z,97421.84
2017-10-26T11:09:14.143Z,97417.77
2017-10-26T11:11:39.911Z,97413.09
2017-10-26T11:14:05.681Z,97419.05
2017-10-26T11:16:31.489Z,97409.23
2017-10-26T11:18:57.252Z,97413.55
2017-10-26T11:21:23.045Z,97420.36
2017-10-26T11:23:48.799Z,97422.00
2017-10-26T11:26:14.590Z,97423.00
2017-10-26T11:28:40.335Z,97422.23
2017-10-26T11:31:06.141Z,97413.14
2017-10-26T11:33:31.920Z,97407.05
2017-10-26T11:35:57.687Z,97399.14
2017-10-26T11:38:23.487Z,97393.45
2017-10-26T11:40:49.294Z,97383.66
2017-10-26T11:43:15.092Z,97375.98
2017-10-26T11:45:40.872Z,97369.67
2017-10-26T11:48:06.646Z,97365.16
2017-10-26T11:50:32.479Z,97352.88
2017-10-26T11:52:58.248Z,97360.62
2017-10-26T11:55:24.023Z,97361.72
2017-10-26T11:57:49.854Z,97366.09
2017-10-26T12:00:15.709Z,97370.39
2017-10-26T12:02:41.499Z,97368.08
2017-10-26T12:05:07.284Z,97359.45
2017-10-26T12:07:33.080Z,97361.07
2017-10-26T12:09:58.852Z,97358.82
2017-10-26T12:12:24.642Z,97355.72
2017-10-26T12:14:50.447Z,97359.23
2017-10-26T12:17:16.207Z,97354.97
2017-10-26T12:19:42.008Z,97356.42
2017-10-26T12:22:07.777Z,97351.83
2017-10-26T12:24:33.558Z,97341.39
2017-10-26T12:26:59.360Z,97336.70
2017-10-26T12:29:25.126Z,97335.78
2017-10-26T12:31:50.910Z,97331.72
2017-10-26T12:34:16.745Z,97331.74
2017-10-26T12:36:42.590Z,97327.28
2017-10-26T12:39:08.409Z,97320.75
2017-10-26T12:41:34.163Z,97315.55
2017-10-26T12:43:59.951Z,97319.05
2017-10-26T12:46:25.759Z,97322.14
2017-10-26T12:48:51.535Z,97320.20
2017-10-26T12:51:17.307Z,97320.92
2017-10-26T12:53:43.154Z,97318.25
2017-10-26T12:56:09.087Z,97320.20
2017-10-26T12:58:34.871Z,97315.95
2017-10-26T13:01:00.663Z,97305.78
2017-10-26T13:03:26.491Z,97305.00
2017-10-26T13:05:52.251Z,97310.07
2017-10-26T13:08:18.052Z,97311.14
2017-10-26T13:10:43.812Z,97299.16
2017-10-26T13:13:09.640Z,97303.07
2017-10-26T13:15:35.422Z,97302.22
2017-10-26T13:18:01.207Z,97302.97
2017-10-26T13:20:26.992Z,97303.73
2017-10-26T13:22:52.786Z,97299.75
2017-10-26T13:25:18.612Z,97307.45
2017-10-26T13:27:44.371Z,97303.89
2017-10-26T13:30:10.147Z,97302.27
2017-10-26T13:32:35.911Z,97304.84
2017-10-26T13:35:01.674Z,97306.81
2017-10-26T13:37:27.440Z,97301.42
2017-10-26T13:39:53.199Z,97300.19
2017-10-26T13:42:19.043Z,97302.72
2017-10-26T13:44:44.834Z,97300.47
2017-10-26T13:47:11.783Z,97300.45
2017-10-26T13:49:37.552Z,97304.08
2017-10-26T13:52:03.303Z,97304.30
2017-10-26T13:54:29.198Z,97303.77
2017-10-26T13:56:54.986Z,97307.84
2017-10-26T13:59:20.752Z,97302.56
2017-10-26T14:01:46.581Z,97313.56
2017-10-26T14:04:12.337Z,97311.04
2017-10-26T14:06:38.164Z,97309.15
2017-10-26T14:09:04.035Z,97307.23
2017-10-26T14:11:29.793Z,97311.80
2017-10-26T14:13:55.579Z,97310.72
2017-10-26T14:16:21.407Z,97313.73
2017-10-26T14:18:47.148Z,97311.56
2017-10-26T14:21:12.943Z,97300.12
2017-10-26T14:23:38.767Z,97304.55
2017-10-26T14:26:04.588Z,97304.98
2017-10-26T14:28:30.403Z,97309.92
2017-10-26T14:30:56.163Z,97299.00
2017-10-26T14:33:21.946Z,97303.14
2017-10-26T14:35:47.777Z,97310.77
2017-10-26T14:38:13.535Z,97306.89
2017-10-26T14:40:39.332Z,97307.72
2017-10-26T14:43:05.114Z,97305.16
2017-10-26T14:45:30.880Z,97303.89
2017-10-26T14:47:56.644Z,97303.55
2017-10-26T14:50:22.395Z,97305.89
2017-10-26T14:52:48.188Z,97305.14
2017-10-26T14:55:13.987Z,97311.33
2017-10-26T14:57:39.728Z,97312.31
2017-10-26T15:00:05.486Z,97311.39
2017-10-26T15:02:31.248Z,97312.63
2017-10-26T15:04:57.017Z,97314.77
2017-10-26T15:07:22.798Z,97309.81
2017-10-26T15:09:48.559Z,97310.86
2017-10-26T15:12:14.327Z,97311.06
2017-10-26T15:14:40.090Z,97312.95
2017-10-26T15:17:05.889Z,97304.45
2017-10-26T15:19:31.636Z,97312.61
2017-10-26T15:21:57.401Z,97314.35
2017-10-26T15:24:23.325Z,97318.16
2017-10-26T15:26:49.775Z,97318.95
2017-10-26T15:29:16.931Z,97317.71
2017-10-26T15:31:44.123Z,97311.50
2017-10-26T15:34:11.729Z,97306.42
2017-10-26T15:36:39.458Z,97314.77
2017-10-26T15:39:06.484Z,97308.50
2017-10-26T15:41:33.155Z,97311.09
2017-10-26T15:43:59.217Z,97315.11
2017-10-26T15:46:24.982Z,97310.69
2017-10-26T15:48:50.822Z,97310.67
2017-10-26T15:51:16.603Z,97307.97
2017-10-26T15:53:42.467Z,97309.39
2017-10-26T15:56:08.458Z,97312.64
2017-10-26T15:58:38.138Z,97320.67
2017-10-26T16:01:03.894Z,97324.70
2017-10-26T16:03:29.642Z,97313.31
2017-10-26T16:05:55.419Z,97314.82
2017-10-26T16:08:21.199Z,97315.53
2017-10-26T16:10:46.964Z,97313.06
2017-10-26T16:13:12.715Z,97312.56
2017-10-26T16:15:38.487Z,97303.37
2017-10-26T16:18:04.273Z,97301.92
2017-10-26T16:20:30.020Z,97302.88
2017-10-26T16:22:56.238Z,97300.66
2017-10-26T16:25:22.024Z,97305.13
2017-10-26T16:27:47.791Z,97302.99
2017-10-26T16:30:13.558Z,97303.08
2017-10-26T16:32:39.316Z,97306.41
2017-10-26T16:35:05.107Z,97303.48
2017-10-26T16:37:30.879Z,97300.39
2017-10-26T16:39:56.623Z,97305.47
2017-10-26T16:42:22.382Z,97302.52
2017-10-26T16:44:48.152Z,97297.16
2017-10-26T16:47:14.022Z,97299.31
2017-10-26T16:49:39.850Z,97297.22
2017-10-26T16:52:05.646Z,97300.00
2017-10-26T16:54:31.436Z,97299.27
2017-10-26T16:56:57.195Z,97299.56
2017-10-26T16:59:23.003Z,97301.09
2017-10-26T17:01:48.763Z,97299.38
2017-10-26T17:04:14.554Z,97300.80
2017-10-26T17:06:40.304Z,97309.11
2017-10-26T17:09:06.079Z,97308.30
2017-10-26T17:11:31.835Z,97314.28
2017-10-26T17:13:57.590Z,97312.63
2017-10-26T17:16:23.368Z,97311.61
2017-10-26T17:18:49.139Z,97315.08
2017-10-26T17:21:14.899Z,97316.69
2017-10-26T17:23:40.681Z,97320.89
2017-10-26T17:28:47.437Z,97324.91
2017-10-26T17:31:13.200Z,97325.08
2017-10-26T17:33:38.988Z,97317.72
2017-10-26T17:36:04.746Z,97323.03
2017-10-26T17:38:30.523Z,97321.46
2017-10-26T17:40:56.335Z,97325.41
2017-10-26T17:43:22.101Z,97320.42
2017-10-26T17:45:47.866Z,97319.14
2017-10-26T17:48:13.688Z,97318.45
2017-10-26T17:50:39.451Z,97319.91
2017-10-26T17:53:05.235Z,97321.69
2017-10-26T17:55:31.000Z,97322.89
2017-10-26T17:57:56.783Z,97318.52
2017-10-26T18:00:22.563Z,97315.05
2017-10-26T18:02:48.330Z,97318.70
2017-10-26T18:05:14.103Z,97317.98
2017-10-26T18:07:39.896Z,97325.80
2017-10-26T18:10:05.691Z,97321.85
2017-10-26T18:12:31.452Z,97320.76
2017-10-26T18:14:57.235Z,97320.89
2017-10-26T18:17:23.021Z,97319.92
2017-10-26T18:19:48.787Z,97313.88
2017-10-26T18:22:14.544Z,97309.34
2017-10-26T18:24:40.303Z,97315.55
2017-10-26T18:27:06.105Z,97302.55
2017-10-26T18:29:31.843Z,97298.62
2017-10-26T18:31:57.596Z,97296.76
2017-10-26T18:34:23.368Z,97301.69
2017-10-26T18:36:49.147Z,97295.30
2017-10-26T18:39:14.907Z,97293.77
2017-10-26T18:41:40.670Z,97295.61
2017-10-26T18:44:06.455Z,97292.13
2017-10-26T18:46:32.201Z,97287.48
2017-10-26T18:48:57.971Z,97290.80
2017-10-26T18:51:23.743Z,97285.81
2017-10-26T18:53:49.514Z,97287.70
2017-10-26T18:56:15.279Z,97284.98
2017-10-26T18:58:41.067Z,97287.96
2017-10-26T19:01:06.804Z,97285.14
2017-10-26T19:03:32.580Z,97284.81
2017-10-26T19:05:58.363Z,97279.10
2017-10-26T19:08:24.122Z,97277.66
2017-10-26T19:10:49.890Z,97271.59
2017-10-26T19:13:16.747Z,97275.50
2017-10-26T19:15:42.495Z,97274.39
2017-10-26T19:18:08.304Z,97267.17
2017-10-26T19:20:34.060Z,97259.30
2017-10-26T19:22:59.838Z,97256.53
2017-10-26T19:25:25.584Z,97260.02
2017-10-26T19:27:51.343Z,97248.19
2017-10-26T19:30:17.125Z,97250.52
2017-10-26T19:32:42.886Z,97249.83
2017-10-26T19:35:08.667Z,97244.65
2017-10-26T19:37:34.434Z,97243.56
2017-10-26T19:40:00.176Z,97240.35
2017-10-26T19:42:25.953Z,97247.53
2017-10-26T19:44:51.748Z,97240.69
2017-10-26T19:47:17.507Z,97245.41
2017-10-26T19:49:43.268Z,97244.59
2017-10-26T19:52:09.044Z,97234.72
2017-10-26T19:54:34.791Z,97228.72
2017-10-26T19:57:00.582Z,97230.11
2017-10-26T19:59:26.335Z,97228.68
2017-10-26T20:01:52.095Z,97227.20
2017-10-26T20:04:17.873Z,97234.28
2017-10-26T20:06:43.619Z,97239.66
2017-10-26T20:09:09.406Z,97232.63
2017-10-26T20:11:35.169Z,97234.21
2017-10-26T20:14:00.928Z,97239.52
2017-10-26T20:16:26.699Z,97233.84
2017-10-26T20:18:52.502Z,97237.21
2017-10-26T20:21:18.296Z,97236.98
2017-10-26T20:23:44.098Z,97239.42
2017-10-26T20:26:09.858Z,97232.89
2017-10-26T20:28:35.648Z,97236.63
2017-10-26T20:31:01.472Z,97234.05
2017-10-26T20:33:27.319Z,97234.21
2017-10-26T20:35:53.079Z,97235.20
2017-10-26T20:38:18.867Z,97230.45
2017-10-26T20:40:44.631Z,97224.22
2017-10-26T20:43:10.362Z,97221.11
2017-10-26T20:45:36.165Z,97219.69
2017-10-26T20:48:01.974Z,97215.82
2017-10-26T20:53:32.645Z,97213.86
2017-10-26T20:56:04.463Z,97212.34
2017-10-26T20:58:36.468Z,97220.31
2017-10-26T21:01:08.399Z,97215.45
2017-10-26T21:03:40.163Z,97218.81
2017-10-26T21:06:12.171Z,97220.36
2017-10-26T21:08:44.124Z,97216.04
2017-10-26T21:11:16.093Z,97219.86
2017-10-26T21:13:47.949Z,97209.31
2017-10-26T21:16:13.719Z,97217.35
2017-10-26T21:18:39.543Z,97215.76
2017-10-26T21:21:05.288Z,97214.15
2017-10-26T21:23:31.087Z,97207.00
2017-10-26T21:25:56.939Z,97204.87
2017-10-26T21:28:22.698Z,97206.55
2017-10-26T21:30:48.468Z,97208.26
2017-10-26T21:33:14.236Z,97211.77
2017-10-26T21:35:39.999Z,97211.56
2017-10-26T21:38:05.867Z,97210.20
2017-10-26T21:40:31.611Z,97210.02
2017-10-26T21:42:57.392Z,97205.94
2017-10-26T21:45:23.155Z,97210.05
2017-10-26T21:47:48.890Z,97210.75
2017-10-26T21:50:14.648Z,97204.30
2017-10-26T21:52:40.427Z,97209.34
2017-10-26T21:55:06.172Z,97210.73
2017-10-26T21:57:31.976Z,97211.06
2017-10-26T21:59:57.734Z,97208.45
2017-10-26T22:02:23.587Z,97200.02
2017-10-26T22:04:49.455Z,97199.56
2017-10-26T22:07:15.223Z,97191.28
2017-10-26T22:09:41.075Z,97192.44
2017-10-26T22:12:06.835Z,97194.81
2017-10-26T22:14:32.600Z,97193.91
2017-10-26T22:16:58.359Z,97194.63
2017-10-26T22:19:24.128Z,97193.44
2017-10-26T22:21:49.867Z,97196.37
2017-10-26T22:24:15.714Z,97189.98
2017-10-26T22:26:41.502Z,97184.86
2017-10-26T22:29:07.271Z,97184.73
2017-10-26T22:31:33.040Z,97179.13
2017-10-26T22:33:58.823Z,97169.96
2017-10-26T22:36:24.576Z,97169.44
2017-10-26T22:38:50.328Z,97175.80
2017-10-26T22:41:16.112Z,97174.49
2017-10-26T22:43:41.887Z,97167.81
2017-10-26T22:46:07.681Z,97169.08
2017-10-26T22:48:33.451Z,97162.92
2017-10-26T22:50:59.216Z,97162.53
2017-10-26T22:53:25.007Z,97161.45
2017-10-26T22:55:50.834Z,97158.83
2017-10-26T22:58:16.580Z,97157.00
2017-10-26T23:00:42.380Z,97160.45
2017-10-26T23:03:08.127Z,97160.45
2017-10-26T23:05:33.862Z,97162.12
2017-10-26T23:07:59.664Z,97160.67
2017-10-26T23:10:25.428Z,97152.29
2017-10-26T23:12:51.168Z,97155.02
2017-10-26T23:15:17.028Z,97148.06
2017-10-26T23:17:42.775Z,97152.94
2017-10-26T23:20:08.547Z,97153.09
2017-10-26T23:22:34.319Z,97150.84
2017-10-26T23:25:00.125Z,97156.84
2017-10-26T23:27:25.884Z,97160.77
2017-10-26T23:29:51.667Z,97161.56
2017-10-26T23:32:17.425Z,97160.32
2017-10-26T23:34:43.195Z,97156.22
2017-10-26T23:37:09.027Z,97157.94
2017-10-26T23:39:34.846Z,97149.68
2017-10-26T23:42:00.607Z,97147.06
2017-10-26T23:44:26.368Z,97147.12
2017-10-26T23:46:52.147Z,97141.52
2017-10-26T23:49:17.896Z,97139.79
2017-10-26T23:51:43.650Z,97142.18
2017-10-26T23:54:09.518Z,97139.41
2017-10-26T23:56:35.259Z,97136.83
2017-10-26T23:59:01.006Z,97129.41
